Terminal Aerodrome Forecast
Issued by NWS

Home | Current Version | Previous Version | Graphics & Text | Print | Product List | Glossary On
Versions: 1 2 3 4 5 6 7 8 9 10 11 12 13 14 15 16 17 18 19 20
000
FTUS43 KMPX 281100
TAFRNH
TAF
KRNH 281137Z 2812/2912 13004KT P6SM FEW060
      TEMPO 2812/2814 4SM BR
     FM281500 19005KT P6SM SCT060
     FM281800 21007KT P6SM SCT050
     FM290000 22004KT P6SM SCT050
     FM290900 33003KT 6SM BR VCSH SCT025 OVC050=

USA.gov is the U.S. government's official web portal to all federal, state and local government web resources and services.